Wind Cave National Park, SD

1:15 AM MDT on September 05, 2015 (GMT -0600)
Hay Creek Road | | Change Station
CLOSE
Current Station
Personal Weather Station
Location: Custer, SD
Elevation: 5325 ft
Nearby Weather Stations

Elev 5325 ft 43.70 °N, 103.67 °W | Updated 3 seconds ago

Mostly Cloudy
Mostly Cloudy
63.5 °F
Feels Like 63.5 °F
N
0.0
Wind Variable Wind from South
Gusts 0.0 mph

Today
High -- | Low -- °F
--% Chance of Precip.
Yesterday
High -- | Low -- °F
Precip. -- in
6:22 AM 7:23 PM
Waning Gibbous, 51% visible
Pressure 29.73 in
Visibility 10.0 miles
Clouds Few 5000 ft
Mostly Cloudy 10000 ft
Mostly Cloudy 12000 ft
Dew Point 50 °F
Humidity 62%
Rainfall 0.00 in
Snow Depth Not available.
UV 0.0 out of 12
Pollen 9.70 out of 12
Air Quality Not available.
Flu Activity Not available.
METAR KCUT 050653Z AUTO 15003KT 10SM FEW050 BKN100 BKN120 21/07 A2998 RMK AO2 SLP067 T02110067 403000139
Pressure 29.73 in
Visibility 10.0 miles
Clouds Few 5000 ft
Mostly Cloudy 10000 ft
Mostly Cloudy 12000 ft
Dew Point 50 °F
Humidity 62%
Rainfall 0.00 in
Snow Depth Not available.
UV 0.0 out of 12
Pollen 9.70 out of 12
Air Quality Not available.
Flu Activity Not available.
METAR KCUT 050653Z AUTO 15003KT 10SM FEW050 BKN100 BKN120 21/07 A2998 RMK AO2 SLP067 T02110067 403000139

10-Day Weather Forecast

×

Almanac

Astronomy

Sep. 05, 2015 Rise Set
Actual Time
Civil Twilight
Nautical Twilight
Astronomical Twilight
Moon
Length of Visible Light
Length of Day
Tomorrow will be .
, % of the Moon is Illuminated

Today's Extremes

State Highs State Lows

Community

WunderPhotos

Upload Photos

1,852,430 photos uploaded!

WunderBlogs® & News

Nearby

Air Quality

  Air Quality AQ Index Pollutant
Not available.

Snow Depth

Station Depth Elevation

Earthquake Activity

City Distance Mag. Time & Date
Minimum magnitude displayed is 2.5.

Coastal Water Temperatures

Place Temperature

Stations

Nearby Weather Stations

Station Location Temp. Windchill Dew Point Humidity Wind Precip. Elev Updated Type